sensor_id;sensor_type;location;lat;lon;timestamp;P1;durP1;ratioP1;P2;durP2;ratioP2
11425;SDS011;5769;47.998;7.788;2023-07-16T00:00:33;81.18;;;68.93;;
11425;SDS011;5769;47.998;7.788;2023-07-16T00:03:00;82.68;;;68.82;;
11425;SDS011;5769;47.998;7.788;2023-07-16T00:05:28;81.97;;;70.68;;
11425;SDS011;5769;47.998;7.788;2023-07-16T00:07:55;80.82;;;69.03;;
11425;SDS011;5769;47.998;7.788;2023-07-16T00:10:22;83.35;;;71.43;;
11425;SDS011;5769;47.998;7.788;2023-07-16T00:12:49;82.35;;;69.25;;
11425;SDS011;5769;47.998;7.788;2023-07-16T00:15:15;80.95;;;69.20;;
11425;SDS011;5769;47.998;7.788;2023-07-16T00:17:42;82.35;;;71.80;;
11425;SDS011;5769;47.998;7.788;2023-07-16T00:20:09;81.88;;;70.75;;
11425;SDS011;5769;47.998;7.788;2023-07-16T00:22:38;79.53;;;66.85;;
11425;SDS011;5769;47.998;7.788;2023-07-16T00:25:05;81.45;;;69.88;;
11425;SDS011;5769;47.998;7.788;2023-07-16T00:27:32;81.20;;;69.25;;
11425;SDS011;5769;47.998;7.788;2023-07-16T00:29:59;82.07;;;69.60;;
11425;SDS011;5769;47.998;7.788;2023-07-16T00:32:26;83.35;;;72.70;;
11425;SDS011;5769;47.998;7.788;2023-07-16T00:34:53;82.65;;;70.65;;
11425;SDS011;5769;47.998;7.788;2023-07-16T00:37:19;80.32;;;67.50;;
11425;SDS011;5769;47.998;7.788;2023-07-16T00:39:47;82.30;;;69.93;;
11425;SDS011;5769;47.998;7.788;2023-07-16T00:42:14;81.90;;;70.32;;
11425;SDS011;5769;47.998;7.788;2023-07-16T00:44:41;79.57;;;69.60;;
11425;SDS011;5769;47.998;7.788;2023-07-16T00:47:08;80.28;;;67.95;;
11425;SDS011;5769;47.998;7.788;2023-07-16T00:49:35;83.47;;;71.30;;
11425;SDS011;5769;47.998;7.788;2023-07-16T00:52:03;81.30;;;70.35;;
11425;SDS011;5769;47.998;7.788;2023-07-16T00:54:31;81.22;;;70.95;;
11425;SDS011;5769;47.998;7.788;2023-07-16T00:56:59;80.53;;;69.60;;
11425;SDS011;5769;47.998;7.788;2023-07-16T00:59:26;81.70;;;69.88;;
11425;SDS011;5769;47.998;7.788;2023-07-16T01:01:53;79.50;;;69.10;;
11425;SDS011;5769;47.998;7.788;2023-07-16T01:04:20;81.47;;;70.47;;
11425;SDS011;5769;47.998;7.788;2023-07-16T01:06:48;80.28;;;67.85;;
11425;SDS011;5769;47.998;7.788;2023-07-16T01:09:19;81.15;;;68.93;;
11425;SDS011;5769;47.998;7.788;2023-07-16T01:11:47;81.15;;;69.38;;
11425;SDS011;5769;47.998;7.788;2023-07-16T01:14:17;80.50;;;69.18;;
11425;SDS011;5769;47.998;7.788;2023-07-16T01:16:44;78.72;;;67.90;;
11425;SDS011;5769;47.998;7.788;2023-07-16T01:19:11;81.45;;;69.72;;
11425;SDS011;5769;47.998;7.788;2023-07-16T01:21:40;81.32;;;71.28;;
11425;SDS011;5769;47.998;7.788;2023-07-16T01:24:21;81.18;;;71.93;;
11425;SDS011;5769;47.998;7.788;2023-07-16T01:27:14;80.03;;;67.47;;
11425;SDS011;5769;47.998;7.788;2023-07-16T01:29:49;80.22;;;68.43;;
11425;SDS011;5769;47.998;7.788;2023-07-16T01:32:17;82.93;;;71.38;;
11425;SDS011;5769;47.998;7.788;2023-07-16T01:34:45;79.93;;;67.75;;
11425;SDS011;5769;47.998;7.788;2023-07-16T01:37:12;79.30;;;67.38;;
11425;SDS011;5769;47.998;7.788;2023-07-16T01:39:39;81.28;;;70.32;;
11425;SDS011;5769;47.998;7.788;2023-07-16T01:42:06;80.25;;;67.65;;
11425;SDS011;5769;47.998;7.788;2023-07-16T01:44:33;82.93;;;70.28;;
11425;SDS011;5769;47.998;7.788;2023-07-16T01:47:06;81.40;;;70.82;;
11425;SDS011;5769;47.998;7.788;2023-07-16T01:49:34;80.88;;;67.93;;
11425;SDS011;5769;47.998;7.788;2023-07-16T01:52:01;80.25;;;69.10;;
11425;SDS011;5769;47.998;7.788;2023-07-16T01:54:29;79.15;;;66.57;;
11425;SDS011;5769;47.998;7.788;2023-07-16T01:56:56;79.35;;;67.82;;
11425;SDS011;5769;47.998;7.788;2023-07-16T01:59:23;80.55;;;70.07;;
11425;SDS011;5769;47.998;7.788;2023-07-16T02:01:50;79.90;;;69.28;;
11425;SDS011;5769;47.998;7.788;2023-07-16T02:04:18;81.90;;;70.93;;
11425;SDS011;5769;47.998;7.788;2023-07-16T02:06:45;81.28;;;69.78;;
11425;SDS011;5769;47.998;7.788;2023-07-16T02:09:12;79.53;;;68.35;;
11425;SDS011;5769;47.998;7.788;2023-07-16T02:11:40;80.20;;;68.25;;
11425;SDS011;5769;47.998;7.788;2023-07-16T02:14:06;81.22;;;71.00;;
11425;SDS011;5769;47.998;7.788;2023-07-16T02:16:33;80.60;;;69.30;;
11425;SDS011;5769;47.998;7.788;2023-07-16T02:19:00;80.10;;;70.07;;
11425;SDS011;5769;47.998;7.788;2023-07-16T02:21:28;82.07;;;71.63;;
11425;SDS011;5769;47.998;7.788;2023-07-16T02:23:54;79.68;;;68.32;;
11425;SDS011;5769;47.998;7.788;2023-07-16T02:26:21;80.43;;;70.25;;
11425;SDS011;5769;47.998;7.788;2023-07-16T02:28:48;77.75;;;67.05;;
11425;SDS011;5769;47.998;7.788;2023-07-16T02:31:14;79.75;;;69.78;;
11425;SDS011;5769;47.998;7.788;2023-07-16T02:33:41;78.30;;;67.63;;
11425;SDS011;5769;47.998;7.788;2023-07-16T02:36:08;79.55;;;69.00;;
11425;SDS011;5769;47.998;7.788;2023-07-16T02:38:36;78.20;;;67.82;;
11425;SDS011;5769;47.998;7.788;2023-07-16T02:41:02;78.50;;;68.80;;
11425;SDS011;5769;47.998;7.788;2023-07-16T02:43:29;77.57;;;67.72;;
11425;SDS011;5769;47.998;7.788;2023-07-16T02:45:56;79.03;;;68.40;;
11425;SDS011;5769;47.998;7.788;2023-07-16T02:48:22;78.78;;;67.72;;
11425;SDS011;5769;47.998;7.788;2023-07-16T02:50:49;79.65;;;68.82;;
11425;SDS011;5769;47.998;7.788;2023-07-16T02:53:16;79.57;;;68.75;;
11425;SDS011;5769;47.998;7.788;2023-07-16T02:55:44;80.03;;;69.10;;
11425;SDS011;5769;47.998;7.788;2023-07-16T02:58:12;79.00;;;68.00;;
11425;SDS011;5769;47.998;7.788;2023-07-16T03:00:39;79.03;;;68.93;;
11425;SDS011;5769;47.998;7.788;2023-07-16T03:03:05;79.20;;;69.03;;
11425;SDS011;5769;47.998;7.788;2023-07-16T03:05:32;78.47;;;68.45;;
11425;SDS011;5769;47.998;7.788;2023-07-16T03:07:59;79.85;;;68.93;;
11425;SDS011;5769;47.998;7.788;2023-07-16T03:10:25;76.53;;;66.15;;
11425;SDS011;5769;47.998;7.788;2023-07-16T03:12:53;80.60;;;69.03;;
11425;SDS011;5769;47.998;7.788;2023-07-16T03:15:20;75.88;;;66.35;;
11425;SDS011;5769;47.998;7.788;2023-07-16T03:17:47;79.28;;;68.97;;
11425;SDS011;5769;47.998;7.788;2023-07-16T03:20:13;79.20;;;69.32;;
11425;SDS011;5769;47.998;7.788;2023-07-16T03:22:40;77.75;;;68.85;;
11425;SDS011;5769;47.998;7.788;2023-07-16T03:25:07;80.30;;;69.93;;
11425;SDS011;5769;47.998;7.788;2023-07-16T03:27:34;77.47;;;66.35;;
11425;SDS011;5769;47.998;7.788;2023-07-16T03:30:02;78.05;;;65.65;;
11425;SDS011;5769;47.998;7.788;2023-07-16T03:32:30;78.40;;;66.43;;
11425;SDS011;5769;47.998;7.788;2023-07-16T03:34:56;75.68;;;64.10;;
11425;SDS011;5769;47.998;7.788;2023-07-16T03:37:23;76.85;;;66.90;;
11425;SDS011;5769;47.998;7.788;2023-07-16T03:39:50;76.75;;;67.00;;
11425;SDS011;5769;47.998;7.788;2023-07-16T03:42:17;78.60;;;66.97;;
11425;SDS011;5769;47.998;7.788;2023-07-16T03:44:44;74.32;;;66.20;;
11425;SDS011;5769;47.998;7.788;2023-07-16T03:47:12;73.78;;;65.60;;
11425;SDS011;5769;47.998;7.788;2023-07-16T03:49:39;74.25;;;66.05;;
11425;SDS011;5769;47.998;7.788;2023-07-16T03:52:06;74.22;;;66.07;;
11425;SDS011;5769;47.998;7.788;2023-07-16T03:54:33;73.28;;;65.07;;
11425;SDS011;5769;47.998;7.788;2023-07-16T03:56:59;73.35;;;64.95;;
11425;SDS011;5769;47.998;7.788;2023-07-16T03:59:26;73.18;;;64.22;;
11425;SDS011;5769;47.998;7.788;2023-07-16T04:01:53;73.45;;;65.32;;
11425;SDS011;5769;47.998;7.788;2023-07-16T04:04:21;74.28;;;64.90;;
11425;SDS011;5769;47.998;7.788;2023-07-16T04:06:47;76.25;;;67.05;;
11425;SDS011;5769;47.998;7.788;2023-07-16T04:09:14;75.47;;;66.63;;
11425;SDS011;5769;47.998;7.788;2023-07-16T04:11:40;76.60;;;68.25;;
11425;SDS011;5769;47.998;7.788;2023-07-16T04:14:07;76.35;;;67.38;;
11425;SDS011;5769;47.998;7.788;2023-07-16T04:16:34;75.30;;;65.88;;
11425;SDS011;5769;47.998;7.788;2023-07-16T04:19:00;78.60;;;69.85;;
11425;SDS011;5769;47.998;7.788;2023-07-16T04:21:28;74.95;;;66.03;;
11425;SDS011;5769;47.998;7.788;2023-07-16T04:23:55;76.75;;;68.00;;
11425;SDS011;5769;47.998;7.788;2023-07-16T04:26:22;76.95;;;67.57;;
11425;SDS011;5769;47.998;7.788;2023-07-16T04:28:48;76.53;;;66.88;;
11425;SDS011;5769;47.998;7.788;2023-07-16T04:31:15;77.63;;;67.88;;
11425;SDS011;5769;47.998;7.788;2023-07-16T04:33:42;76.30;;;67.30;;
11425;SDS011;5769;47.998;7.788;2023-07-16T04:36:08;76.43;;;67.07;;
11425;SDS011;5769;47.998;7.788;2023-07-16T04:38:36;77.35;;;68.05;;
11425;SDS011;5769;47.998;7.788;2023-07-16T04:41:03;75.00;;;65.35;;
11425;SDS011;5769;47.998;7.788;2023-07-16T04:43:30;74.70;;;65.40;;
11425;SDS011;5769;47.998;7.788;2023-07-16T04:45:56;78.20;;;69.43;;
11425;SDS011;5769;47.998;7.788;2023-07-16T04:48:23;76.32;;;66.93;;
11425;SDS011;5769;47.998;7.788;2023-07-16T04:50:50;76.25;;;65.45;;
11425;SDS011;5769;47.998;7.788;2023-07-16T04:53:17;75.63;;;63.50;;
11425;SDS011;5769;47.998;7.788;2023-07-16T04:55:45;75.68;;;65.53;;
11425;SDS011;5769;47.998;7.788;2023-07-16T04:58:12;75.30;;;65.78;;
11425;SDS011;5769;47.998;7.788;2023-07-16T05:00:39;76.55;;;66.90;;
11425;SDS011;5769;47.998;7.788;2023-07-16T05:03:06;74.85;;;62.53;;
11425;SDS011;5769;47.998;7.788;2023-07-16T05:05:32;74.47;;;64.25;;
11425;SDS011;5769;47.998;7.788;2023-07-16T05:07:59;76.05;;;65.88;;
11425;SDS011;5769;47.998;7.788;2023-07-16T05:10:26;76.43;;;66.75;;
11425;SDS011;5769;47.998;7.788;2023-07-16T05:12:54;76.07;;;66.05;;
11425;SDS011;5769;47.998;7.788;2023-07-16T05:15:21;76.03;;;67.20;;
11425;SDS011;5769;47.998;7.788;2023-07-16T05:17:48;75.72;;;65.88;;
11425;SDS011;5769;47.998;7.788;2023-07-16T05:20:15;76.32;;;66.82;;
11425;SDS011;5769;47.998;7.788;2023-07-16T05:22:41;75.10;;;62.55;;
11425;SDS011;5769;47.998;7.788;2023-07-16T05:25:08;77.00;;;65.07;;
11425;SDS011;5769;47.998;7.788;2023-07-16T05:27:35;75.60;;;65.35;;
11425;SDS011;5769;47.998;7.788;2023-07-16T05:30:03;75.72;;;64.13;;
11425;SDS011;5769;47.998;7.788;2023-07-16T05:32:33;77.30;;;67.65;;
11425;SDS011;5769;47.998;7.788;2023-07-16T05:35:00;74.18;;;65.00;;
11425;SDS011;5769;47.998;7.788;2023-07-16T05:37:27;73.13;;;61.28;;
11425;SDS011;5769;47.998;7.788;2023-07-16T05:39:54;75.25;;;64.65;;
11425;SDS011;5769;47.998;7.788;2023-07-16T05:42:20;75.95;;;63.33;;
11425;SDS011;5769;47.998;7.788;2023-07-16T05:44:47;76.80;;;66.43;;
11425;SDS011;5769;47.998;7.788;2023-07-16T05:47:15;75.80;;;66.63;;
11425;SDS011;5769;47.998;7.788;2023-07-16T05:49:42;76.03;;;65.45;;
11425;SDS011;5769;47.998;7.788;2023-07-16T05:52:09;75.18;;;66.57;;
11425;SDS011;5769;47.998;7.788;2023-07-16T05:54:36;74.63;;;65.38;;
11425;SDS011;5769;47.998;7.788;2023-07-16T05:57:03;75.03;;;65.25;;
11425;SDS011;5769;47.998;7.788;2023-07-16T05:59:30;75.78;;;65.60;;
11425;SDS011;5769;47.998;7.788;2023-07-16T06:01:59;76.43;;;64.63;;
11425;SDS011;5769;47.998;7.788;2023-07-16T06:04:27;74.70;;;63.03;;
11425;SDS011;5769;47.998;7.788;2023-07-16T06:06:54;73.07;;;62.67;;
11425;SDS011;5769;47.998;7.788;2023-07-16T06:09:20;77.00;;;67.75;;
11425;SDS011;5769;47.998;7.788;2023-07-16T06:11:47;75.43;;;64.18;;
11425;SDS011;5769;47.998;7.788;2023-07-16T06:14:14;75.30;;;65.70;;
11425;SDS011;5769;47.998;7.788;2023-07-16T06:16:40;74.85;;;65.50;;
11425;SDS011;5769;47.998;7.788;2023-07-16T06:19:07;75.75;;;64.65;;
11425;SDS011;5769;47.998;7.788;2023-07-16T06:21:35;74.68;;;63.60;;
11425;SDS011;5769;47.998;7.788;2023-07-16T06:24:02;75.72;;;64.80;;
11425;SDS011;5769;47.998;7.788;2023-07-16T06:26:29;74.68;;;64.70;;
11425;SDS011;5769;47.998;7.788;2023-07-16T06:28:56;72.63;;;62.83;;
11425;SDS011;5769;47.998;7.788;2023-07-16T06:31:22;75.00;;;64.80;;
11425;SDS011;5769;47.998;7.788;2023-07-16T06:33:49;77.15;;;66.63;;
11425;SDS011;5769;47.998;7.788;2023-07-16T06:36:15;75.57;;;66.07;;
11425;SDS011;5769;47.998;7.788;2023-07-16T06:38:43;75.32;;;65.07;;
11425;SDS011;5769;47.998;7.788;2023-07-16T06:41:10;74.78;;;63.25;;
11425;SDS011;5769;47.998;7.788;2023-07-16T06:43:37;75.03;;;65.80;;
11425;SDS011;5769;47.998;7.788;2023-07-16T06:46:03;78.07;;;65.53;;
11425;SDS011;5769;47.998;7.788;2023-07-16T06:48:30;78.10;;;66.80;;
11425;SDS011;5769;47.998;7.788;2023-07-16T06:50:57;75.88;;;65.32;;
11425;SDS011;5769;47.998;7.788;2023-07-16T06:53:23;75.15;;;63.20;;
11425;SDS011;5769;47.998;7.788;2023-07-16T06:55:51;76.53;;;66.18;;
11425;SDS011;5769;47.998;7.788;2023-07-16T06:58:18;77.63;;;68.82;;
11425;SDS011;5769;47.998;7.788;2023-07-16T07:00:45;79.95;;;69.85;;
11425;SDS011;5769;47.998;7.788;2023-07-16T07:03:11;77.05;;;66.57;;
11425;SDS011;5769;47.998;7.788;2023-07-16T07:05:40;78.40;;;66.80;;
11425;SDS011;5769;47.998;7.788;2023-07-16T07:08:07;78.07;;;66.28;;
11425;SDS011;5769;47.998;7.788;2023-07-16T07:10:34;79.53;;;69.13;;
11425;SDS011;5769;47.998;7.788;2023-07-16T07:13:04;78.72;;;66.78;;
11425;SDS011;5769;47.998;7.788;2023-07-16T07:15:31;77.32;;;67.68;;
11425;SDS011;5769;47.998;7.788;2023-07-16T07:17:57;77.25;;;66.63;;
11425;SDS011;5769;47.998;7.788;2023-07-16T07:20:24;76.38;;;65.55;;
11425;SDS011;5769;47.998;7.788;2023-07-16T07:22:51;78.13;;;68.25;;
11425;SDS011;5769;47.998;7.788;2023-07-16T07:25:17;77.47;;;64.85;;
11425;SDS011;5769;47.998;7.788;2023-07-16T07:27:44;77.28;;;66.00;;
11425;SDS011;5769;47.998;7.788;2023-07-16T07:30:13;80.50;;;71.35;;
11425;SDS011;5769;47.998;7.788;2023-07-16T07:32:39;79.35;;;69.38;;
11425;SDS011;5769;47.998;7.788;2023-07-16T07:35:07;78.75;;;67.95;;
11425;SDS011;5769;47.998;7.788;2023-07-16T07:37:33;79.65;;;70.07;;
11425;SDS011;5769;47.998;7.788;2023-07-16T07:40:00;76.20;;;67.15;;
11425;SDS011;5769;47.998;7.788;2023-07-16T07:42:28;77.40;;;68.72;;
11425;SDS011;5769;47.998;7.788;2023-07-16T07:44:55;76.45;;;67.45;;
11425;SDS011;5769;47.998;7.788;2023-07-16T07:47:23;77.82;;;67.13;;
11425;SDS011;5769;47.998;7.788;2023-07-16T07:49:50;76.07;;;67.45;;
11425;SDS011;5769;47.998;7.788;2023-07-16T07:52:18;80.90;;;68.03;;
11425;SDS011;5769;47.998;7.788;2023-07-16T07:54:44;76.25;;;67.20;;
11425;SDS011;5769;47.998;7.788;2023-07-16T07:57:11;78.18;;;68.97;;
11425;SDS011;5769;47.998;7.788;2023-07-16T07:59:38;77.30;;;67.93;;
11425;SDS011;5769;47.998;7.788;2023-07-16T08:02:05;76.05;;;66.32;;
11425;SDS011;5769;47.998;7.788;2023-07-16T08:04:33;75.53;;;66.40;;
11425;SDS011;5769;47.998;7.788;2023-07-16T08:07:00;78.10;;;67.32;;
11425;SDS011;5769;47.998;7.788;2023-07-16T08:09:26;78.63;;;69.95;;
11425;SDS011;5769;47.998;7.788;2023-07-16T08:11:53;75.78;;;66.95;;
11425;SDS011;5769;47.998;7.788;2023-07-16T08:14:20;78.20;;;68.13;;
11425;SDS011;5769;47.998;7.788;2023-07-16T08:16:46;76.82;;;66.15;;
11425;SDS011;5769;47.998;7.788;2023-07-16T08:19:13;76.45;;;65.47;;
11425;SDS011;5769;47.998;7.788;2023-07-16T08:21:41;77.95;;;69.32;;
11425;SDS011;5769;47.998;7.788;2023-07-16T08:24:09;74.60;;;64.32;;
11425;SDS011;5769;47.998;7.788;2023-07-16T08:26:36;78.38;;;69.30;;
11425;SDS011;5769;47.998;7.788;2023-07-16T08:29:03;75.53;;;66.25;;
11425;SDS011;5769;47.998;7.788;2023-07-16T08:31:29;77.32;;;64.82;;
11425;SDS011;5769;47.998;7.788;2023-07-16T08:33:56;78.90;;;68.55;;
11425;SDS011;5769;47.998;7.788;2023-07-16T08:36:23;77.93;;;65.93;;
11425;SDS011;5769;47.998;7.788;2023-07-16T08:38:51;78.97;;;66.60;;
11425;SDS011;5769;47.998;7.788;2023-07-16T08:41:17;77.78;;;65.60;;
11425;SDS011;5769;47.998;7.788;2023-07-16T08:43:45;77.18;;;68.63;;
11425;SDS011;5769;47.998;7.788;2023-07-16T08:46:13;76.95;;;66.15;;
11425;SDS011;5769;47.998;7.788;2023-07-16T08:48:41;78.00;;;66.43;;
11425;SDS011;5769;47.998;7.788;2023-07-16T08:51:07;77.78;;;65.32;;
11425;SDS011;5769;47.998;7.788;2023-07-16T08:53:35;75.13;;;65.22;;
11425;SDS011;5769;47.998;7.788;2023-07-16T08:56:04;77.75;;;65.57;;
11425;SDS011;5769;47.998;7.788;2023-07-16T08:58:31;75.43;;;64.40;;
11425;SDS011;5769;47.998;7.788;2023-07-16T09:00:58;76.28;;;65.55;;
11425;SDS011;5769;47.998;7.788;2023-07-16T09:03:26;76.22;;;65.38;;
11425;SDS011;5769;47.998;7.788;2023-07-16T09:05:53;74.68;;;64.63;;
11425;SDS011;5769;47.998;7.788;2023-07-16T09:08:20;76.03;;;64.65;;
11425;SDS011;5769;47.998;7.788;2023-07-16T09:10:53;77.15;;;66.75;;
11425;SDS011;5769;47.998;7.788;2023-07-16T09:13:22;78.57;;;67.53;;
11425;SDS011;5769;47.998;7.788;2023-07-16T09:15:52;77.93;;;67.95;;
11425;SDS011;5769;47.998;7.788;2023-07-16T09:18:19;78.97;;;68.13;;
11425;SDS011;5769;47.998;7.788;2023-07-16T09:20:47;74.85;;;64.53;;
11425;SDS011;5769;47.998;7.788;2023-07-16T09:23:16;78.78;;;66.38;;
11425;SDS011;5769;47.998;7.788;2023-07-16T09:25:43;77.93;;;67.78;;
11425;SDS011;5769;47.998;7.788;2023-07-16T09:28:10;78.07;;;67.20;;
11425;SDS011;5769;47.998;7.788;2023-07-16T09:30:38;78.90;;;69.05;;
11425;SDS011;5769;47.998;7.788;2023-07-16T09:33:10;77.85;;;67.38;;
11425;SDS011;5769;47.998;7.788;2023-07-16T09:35:39;78.07;;;66.97;;
11425;SDS011;5769;47.998;7.788;2023-07-16T09:38:06;76.57;;;65.03;;
11425;SDS011;5769;47.998;7.788;2023-07-16T09:40:34;77.88;;;67.75;;
11425;SDS011;5769;47.998;7.788;2023-07-16T09:43:01;78.07;;;68.75;;
11425;SDS011;5769;47.998;7.788;2023-07-16T09:45:29;77.45;;;68.80;;
11425;SDS011;5769;47.998;7.788;2023-07-16T09:47:57;79.88;;;70.57;;
11425;SDS011;5769;47.998;7.788;2023-07-16T09:50:23;77.85;;;67.75;;
11425;SDS011;5769;47.998;7.788;2023-07-16T09:52:52;77.15;;;68.20;;
11425;SDS011;5769;47.998;7.788;2023-07-16T09:55:19;76.20;;;65.13;;
11425;SDS011;5769;47.998;7.788;2023-07-16T09:57:48;77.57;;;68.50;;
11425;SDS011;5769;47.998;7.788;2023-07-16T10:00:17;79.65;;;67.60;;
11425;SDS011;5769;47.998;7.788;2023-07-16T10:02:45;77.70;;;68.38;;
11425;SDS011;5769;47.998;7.788;2023-07-16T10:05:14;78.30;;;69.68;;
11425;SDS011;5769;47.998;7.788;2023-07-16T10:07:42;76.88;;;66.68;;
11425;SDS011;5769;47.998;7.788;2023-07-16T10:10:15;77.60;;;67.47;;
11425;SDS011;5769;47.998;7.788;2023-07-16T10:12:43;78.20;;;68.75;;
11425;SDS011;5769;47.998;7.788;2023-07-16T10:15:24;77.95;;;68.53;;
11425;SDS011;5769;47.998;7.788;2023-07-16T10:17:51;77.22;;;67.90;;
11425;SDS011;5769;47.998;7.788;2023-07-16T10:20:27;76.35;;;65.80;;
11425;SDS011;5769;47.998;7.788;2023-07-16T10:22:55;72.65;;;64.25;;
11425;SDS011;5769;47.998;7.788;2023-07-16T10:25:22;75.43;;;65.22;;
11425;SDS011;5769;47.998;7.788;2023-07-16T10:27:51;74.20;;;63.20;;
11425;SDS011;5769;47.998;7.788;2023-07-16T10:30:19;77.93;;;67.32;;
11425;SDS011;5769;47.998;7.788;2023-07-16T10:32:46;73.65;;;64.28;;
11425;SDS011;5769;47.998;7.788;2023-07-16T10:35:13;80.18;;;66.85;;
11425;SDS011;5769;47.998;7.788;2023-07-16T10:37:41;74.07;;;65.32;;
11425;SDS011;5769;47.998;7.788;2023-07-16T10:40:09;82.57;;;66.90;;
11425;SDS011;5769;47.998;7.788;2023-07-16T10:42:39;75.15;;;65.53;;
11425;SDS011;5769;47.998;7.788;2023-07-16T10:45:07;79.95;;;63.38;;
11425;SDS011;5769;47.998;7.788;2023-07-16T10:47:35;73.82;;;61.75;;
11425;SDS011;5769;47.998;7.788;2023-07-16T10:50:04;76.78;;;62.03;;
11425;SDS011;5769;47.998;7.788;2023-07-16T10:52:32;80.90;;;65.47;;
11425;SDS011;5769;47.998;7.788;2023-07-16T10:55:00;78.43;;;67.18;;
11425;SDS011;5769;47.998;7.788;2023-07-16T10:57:28;78.80;;;65.05;;
11425;SDS011;5769;47.998;7.788;2023-07-16T10:59:55;75.13;;;64.65;;
11425;SDS011;5769;47.998;7.788;2023-07-16T11:02:24;75.63;;;65.57;;
11425;SDS011;5769;47.998;7.788;2023-07-16T11:04:51;77.13;;;65.43;;
11425;SDS011;5769;47.998;7.788;2023-07-16T11:07:19;78.13;;;67.78;;
11425;SDS011;5769;47.998;7.788;2023-07-16T11:09:47;78.53;;;67.43;;
11425;SDS011;5769;47.998;7.788;2023-07-16T11:12:17;76.68;;;63.58;;
11425;SDS011;5769;47.998;7.788;2023-07-16T11:14:46;77.25;;;67.28;;
11425;SDS011;5769;47.998;7.788;2023-07-16T11:17:13;76.32;;;67.05;;
11425;SDS011;5769;47.998;7.788;2023-07-16T11:19:43;75.13;;;65.82;;
11425;SDS011;5769;47.998;7.788;2023-07-16T11:22:11;74.90;;;64.95;;
11425;SDS011;5769;47.998;7.788;2023-07-16T11:24:38;75.72;;;64.70;;
11425;SDS011;5769;47.998;7.788;2023-07-16T11:27:06;76.22;;;66.05;;
11425;SDS011;5769;47.998;7.788;2023-07-16T11:29:40;75.57;;;63.78;;
11425;SDS011;5769;47.998;7.788;2023-07-16T11:32:11;78.25;;;65.90;;
11425;SDS011;5769;47.998;7.788;2023-07-16T11:34:37;74.57;;;61.72;;
11425;SDS011;5769;47.998;7.788;2023-07-16T11:37:07;76.75;;;67.78;;
11425;SDS011;5769;47.998;7.788;2023-07-16T11:39:35;75.85;;;65.55;;
11425;SDS011;5769;47.998;7.788;2023-07-16T11:42:02;76.47;;;64.15;;
11425;SDS011;5769;47.998;7.788;2023-07-16T11:44:33;75.40;;;63.22;;
11425;SDS011;5769;47.998;7.788;2023-07-16T11:47:02;76.55;;;65.18;;
11425;SDS011;5769;47.998;7.788;2023-07-16T11:49:31;75.25;;;66.45;;
11425;SDS011;5769;47.998;7.788;2023-07-16T11:51:58;74.20;;;62.00;;
11425;SDS011;5769;47.998;7.788;2023-07-16T11:54:25;74.90;;;64.78;;
11425;SDS011;5769;47.998;7.788;2023-07-16T11:56:51;74.15;;;64.57;;
11425;SDS011;5769;47.998;7.788;2023-07-16T11:59:17;74.90;;;65.15;;
11425;SDS011;5769;47.998;7.788;2023-07-16T12:01:45;77.60;;;66.75;;
11425;SDS011;5769;47.998;7.788;2023-07-16T12:04:15;78.05;;;68.15;;
11425;SDS011;5769;47.998;7.788;2023-07-16T12:06:42;75.05;;;66.38;;
11425;SDS011;5769;47.998;7.788;2023-07-16T12:09:09;75.07;;;65.78;;
11425;SDS011;5769;47.998;7.788;2023-07-16T12:11:35;74.70;;;66.55;;
11425;SDS011;5769;47.998;7.788;2023-07-16T12:14:03;76.43;;;67.78;;
11425;SDS011;5769;47.998;7.788;2023-07-16T12:16:30;78.00;;;66.32;;
11425;SDS011;5769;47.998;7.788;2023-07-16T12:18:57;78.65;;;67.15;;
11425;SDS011;5769;47.998;7.788;2023-07-16T12:21:25;75.63;;;66.03;;
11425;SDS011;5769;47.998;7.788;2023-07-16T12:23:52;75.05;;;66.53;;
11425;SDS011;5769;47.998;7.788;2023-07-16T12:26:18;76.78;;;66.82;;
11425;SDS011;5769;47.998;7.788;2023-07-16T12:28:45;77.97;;;69.22;;
11425;SDS011;5769;47.998;7.788;2023-07-16T12:31:12;77.35;;;67.22;;
11425;SDS011;5769;47.998;7.788;2023-07-16T12:33:38;77.38;;;68.47;;
11425;SDS011;5769;47.998;7.788;2023-07-16T12:36:05;75.03;;;64.63;;
11425;SDS011;5769;47.998;7.788;2023-07-16T12:38:33;76.75;;;66.88;;
11425;SDS011;5769;47.998;7.788;2023-07-16T12:41:00;78.60;;;67.60;;
11425;SDS011;5769;47.998;7.788;2023-07-16T12:43:26;77.35;;;67.53;;
11425;SDS011;5769;47.998;7.788;2023-07-16T12:45:53;77.20;;;67.43;;
11425;SDS011;5769;47.998;7.788;2023-07-16T12:48:20;78.00;;;67.13;;
11425;SDS011;5769;47.998;7.788;2023-07-16T12:50:46;80.53;;;71.65;;
11425;SDS011;5769;47.998;7.788;2023-07-16T12:53:13;78.53;;;69.88;;
11425;SDS011;5769;47.998;7.788;2023-07-16T12:55:41;79.32;;;70.55;;
11425;SDS011;5769;47.998;7.788;2023-07-16T12:58:08;77.68;;;68.25;;
11425;SDS011;5769;47.998;7.788;2023-07-16T13:00:35;77.85;;;68.07;;
11425;SDS011;5769;47.998;7.788;2023-07-16T13:03:01;78.47;;;69.25;;
11425;SDS011;5769;47.998;7.788;2023-07-16T13:05:29;81.47;;;70.25;;
11425;SDS011;5769;47.998;7.788;2023-07-16T13:07:56;78.05;;;67.75;;
11425;SDS011;5769;47.998;7.788;2023-07-16T13:10:23;81.72;;;69.25;;
11425;SDS011;5769;47.998;7.788;2023-07-16T13:12:51;80.07;;;68.13;;
11425;SDS011;5769;47.998;7.788;2023-07-16T13:15:17;79.95;;;67.88;;
11425;SDS011;5769;47.998;7.788;2023-07-16T13:17:44;78.43;;;67.57;;
11425;SDS011;5769;47.998;7.788;2023-07-16T13:20:12;80.68;;;69.03;;
11425;SDS011;5769;47.998;7.788;2023-07-16T13:22:39;83.90;;;70.15;;
11425;SDS011;5769;47.998;7.788;2023-07-16T13:25:06;78.47;;;68.28;;
11425;SDS011;5769;47.998;7.788;2023-07-16T13:27:33;84.72;;;68.38;;
11425;SDS011;5769;47.998;7.788;2023-07-16T13:30:02;81.47;;;70.15;;
11425;SDS011;5769;47.998;7.788;2023-07-16T13:32:29;83.07;;;71.45;;
11425;SDS011;5769;47.998;7.788;2023-07-16T13:34:56;79.32;;;67.90;;
11425;SDS011;5769;47.998;7.788;2023-07-16T13:37:22;80.68;;;70.15;;
11425;SDS011;5769;47.998;7.788;2023-07-16T13:39:49;81.90;;;70.40;;
11425;SDS011;5769;47.998;7.788;2023-07-16T13:42:16;84.35;;;71.00;;
11425;SDS011;5769;47.998;7.788;2023-07-16T13:44:43;72.32;;;64.68;;
11425;SDS011;5769;47.998;7.788;2023-07-16T13:47:11;69.88;;;62.53;;
11425;SDS011;5769;47.998;7.788;2023-07-16T13:49:38;69.55;;;62.53;;
11425;SDS011;5769;47.998;7.788;2023-07-16T13:52:06;67.70;;;60.38;;
11425;SDS011;5769;47.998;7.788;2023-07-16T13:54:33;68.50;;;61.35;;
11425;SDS011;5769;47.998;7.788;2023-07-16T13:57:00;68.18;;;61.13;;
11425;SDS011;5769;47.998;7.788;2023-07-16T13:59:26;64.82;;;57.95;;
11425;SDS011;5769;47.998;7.788;2023-07-16T14:01:58;67.55;;;60.60;;
11425;SDS011;5769;47.998;7.788;2023-07-16T14:04:27;66.28;;;59.42;;
11425;SDS011;5769;47.998;7.788;2023-07-16T14:06:55;65.82;;;58.97;;
11425;SDS011;5769;47.998;7.788;2023-07-16T14:09:22;65.90;;;59.15;;
11425;SDS011;5769;47.998;7.788;2023-07-16T14:11:49;66.10;;;59.33;;
11425;SDS011;5769;47.998;7.788;2023-07-16T14:14:16;65.38;;;58.72;;
11425;SDS011;5769;47.998;7.788;2023-07-16T14:16:43;65.30;;;58.25;;
11425;SDS011;5769;47.998;7.788;2023-07-16T14:19:10;66.75;;;59.80;;
11425;SDS011;5769;47.998;7.788;2023-07-16T14:21:39;65.30;;;58.53;;
11425;SDS011;5769;47.998;7.788;2023-07-16T14:24:06;66.63;;;59.83;;
11425;SDS011;5769;47.998;7.788;2023-07-16T14:26:34;66.10;;;59.33;;
11425;SDS011;5769;47.998;7.788;2023-07-16T14:29:01;64.07;;;57.42;;
11425;SDS011;5769;47.998;7.788;2023-07-16T14:31:27;68.03;;;61.17;;
11425;SDS011;5769;47.998;7.788;2023-07-16T14:33:54;65.40;;;58.63;;